createdAt,value
2022-12-03T00:00:36.277Z,2.47
2022-12-03T00:03:03.819Z,3.20
2022-12-03T00:05:30.937Z,2.25
2022-12-03T00:07:58.193Z,1.63
2022-12-03T00:10:26.450Z,2.63
2022-12-03T00:12:54.023Z,2.28
2022-12-03T00:15:21.175Z,2.92
2022-12-03T00:17:48.176Z,3.55
2022-12-03T00:20:22.250Z,2.13
2022-12-03T00:22:49.828Z,2.20
2022-12-03T00:25:17.047Z,2.47
2022-12-03T00:27:44.452Z,2.20
2022-12-03T00:30:12.632Z,2.05
2022-12-03T00:32:39.815Z,1.63
2022-12-03T00:35:07.614Z,2.53
2022-12-03T00:37:35.497Z,3.00
2022-12-03T00:40:04.222Z,1.83
2022-12-03T00:42:31.610Z,2.28
2022-12-03T00:44:58.589Z,5.65
2022-12-03T00:47:25.652Z,4.78
2022-12-03T00:49:52.742Z,8.48
2022-12-03T00:52:20.071Z,7.57
2022-12-03T00:54:47.144Z,7.53
2022-12-03T00:57:14.196Z,4.65
2022-12-03T00:59:41.443Z,3.35
2022-12-03T01:02:09.218Z,4.85
2022-12-03T01:04:36.474Z,4.82
2022-12-03T01:07:03.803Z,4.85
2022-12-03T01:09:30.785Z,6.07
2022-12-03T01:11:57.989Z,3.15
2022-12-03T01:14:25.133Z,4.28
2022-12-03T01:16:52.144Z,4.45
2022-12-03T01:19:19.798Z,3.63
2022-12-03T01:21:49.727Z,4.88
2022-12-03T01:24:17.937Z,4.38
2022-12-03T01:26:45.318Z,5.82
2022-12-03T01:29:12.311Z,2.72
2022-12-03T01:31:58.039Z,3.80
2022-12-03T01:34:25.010Z,3.30
2022-12-03T01:36:52.774Z,3.28
2022-12-03T01:39:20.347Z,2.67
2022-12-03T01:41:49.563Z,3.63
2022-12-03T01:44:28.226Z,4.10
2022-12-03T01:46:57.544Z,6.07
2022-12-03T01:49:43.719Z,4.55
2022-12-03T01:52:17.140Z,4.30
2022-12-03T01:55:15.205Z,4.43
2022-12-03T01:57:46.447Z,4.18
2022-12-03T02:00:20.219Z,3.55
2022-12-03T02:02:53.020Z,6.05
2022-12-03T02:05:24.002Z,5.65
2022-12-03T02:07:51.267Z,4.88
2022-12-03T02:10:21.644Z,7.30
2022-12-03T02:13:09.345Z,6.10
2022-12-03T02:15:38.764Z,5.82
2022-12-03T02:18:05.883Z,2.60
2022-12-03T02:20:41.194Z,3.67
2022-12-03T02:23:16.743Z,7.47
2022-12-03T02:25:43.943Z,3.28
2022-12-03T02:28:11.297Z,7.90
2022-12-03T02:30:38.392Z,3.97
2022-12-03T02:33:05.638Z,5.57
2022-12-03T02:35:35.077Z,4.53
2022-12-03T02:38:37.449Z,4.15
2022-12-03T02:41:08.433Z,3.45
2022-12-03T02:43:35.660Z,4.25
2022-12-03T02:46:05.278Z,4.07
2022-12-03T02:48:35.875Z,6.82
2022-12-03T02:51:11.255Z,5.00
2022-12-03T02:53:45.059Z,3.45
2022-12-03T02:58:45.544Z,1.92
2022-12-03T03:01:13.090Z,4.50
2022-12-03T03:03:40.369Z,9.95
2022-12-03T03:06:08.863Z,4.97
2022-12-03T03:08:37.521Z,10.75
2022-12-03T03:11:05.317Z,162.90
2022-12-03T03:13:35.669Z,697.65
2022-12-03T03:16:04.150Z,583.78
2022-12-03T03:18:32.613Z,5.80
2022-12-03T03:20:59.888Z,107.75
2022-12-03T03:23:26.922Z,26.77
2022-12-03T03:26:05.836Z,11.18
2022-12-03T03:28:36.075Z,5.68
2022-12-03T03:31:05.370Z,6.03
2022-12-03T03:33:32.966Z,5.28
2022-12-03T03:36:00.825Z,6.25
2022-12-03T03:38:30.025Z,5.55
2022-12-03T03:40:59.552Z,6.35
2022-12-03T03:43:26.746Z,5.85
2022-12-03T03:45:54.406Z,4.60
2022-12-03T03:48:22.759Z,5.28
2022-12-03T03:50:51.288Z,3.92
2022-12-03T03:53:19.582Z,5.55
2022-12-03T03:55:47.165Z,5.50
2022-12-03T03:58:14.402Z,4.70
2022-12-03T04:00:44.331Z,4.38
2022-12-03T04:03:11.932Z,5.35
2022-12-03T04:05:39.457Z,5.28
2022-12-03T04:08:21.764Z,4.75
2022-12-03T04:11:07.276Z,4.47
2022-12-03T04:13:34.356Z,4.28
2022-12-03T04:16:01.601Z,5.30
2022-12-03T04:18:43.529Z,5.72
2022-12-03T04:21:37.862Z,6.97
2022-12-03T04:24:06.198Z,6.82
2022-12-03T04:26:51.932Z,7.20
2022-12-03T04:29:20.141Z,4.43
2022-12-03T04:32:05.705Z,6.75
2022-12-03T04:34:52.209Z,4.38
2022-12-03T04:37:19.694Z,7.28
2022-12-03T04:39:46.781Z,4.72
2022-12-03T04:42:13.865Z,3.58
2022-12-03T04:44:40.922Z,6.50
2022-12-03T04:47:14.050Z,3.65
2022-12-03T04:49:43.532Z,3.90
2022-12-03T04:52:12.181Z,0.90
2022-12-03T04:54:39.526Z,1.23
2022-12-03T04:57:07.119Z,2.53
2022-12-03T04:59:35.123Z,2.38
2022-12-03T05:02:02.364Z,3.65
2022-12-03T05:04:29.711Z,2.55
2022-12-03T05:06:56.724Z,2.50
2022-12-03T05:09:24.038Z,5.35
2022-12-03T05:11:51.111Z,1.27
2022-12-03T05:14:18.079Z,3.33
2022-12-03T05:16:45.124Z,2.10
2022-12-03T05:19:12.180Z,2.03
2022-12-03T05:21:39.146Z,1.98
2022-12-03T05:24:06.638Z,0.75
2022-12-03T05:26:33.709Z,1.40
2022-12-03T05:29:00.723Z,2.42
2022-12-03T05:31:27.817Z,1.80
2022-12-03T05:33:55.462Z,1.77
2022-12-03T05:36:22.595Z,2.80
2022-12-03T05:38:49.579Z,2.03
2022-12-03T05:41:34.899Z,3.88
2022-12-03T05:44:01.921Z,0.93
2022-12-03T05:46:29.176Z,2.30
2022-12-03T05:48:56.255Z,4.95
2022-12-03T05:51:23.315Z,4.97
2022-12-03T05:53:50.323Z,2.60
2022-12-03T05:56:17.333Z,4.00
2022-12-03T05:58:44.319Z,2.75
2022-12-03T06:01:11.244Z,5.72
2022-12-03T06:03:38.414Z,2.03
2022-12-03T06:06:05.706Z,3.17
2022-12-03T06:08:32.665Z,3.33
2022-12-03T06:10:59.651Z,3.55
2022-12-03T06:13:26.656Z,2.60
2022-12-03T06:15:53.702Z,3.85
2022-12-03T06:18:20.777Z,1.92
2022-12-03T06:20:47.808Z,3.55
2022-12-03T06:23:14.847Z,4.97
2022-12-03T06:25:41.830Z,3.53
2022-12-03T06:28:09.121Z,4.18
2022-12-03T06:30:36.226Z,2.85
2022-12-03T06:33:03.374Z,2.63
2022-12-03T06:35:30.498Z,6.05
2022-12-03T06:37:57.557Z,2.60
2022-12-03T06:40:25.339Z,4.15
2022-12-03T06:42:53.108Z,2.20
2022-12-03T06:45:20.111Z,3.92
2022-12-03T06:47:47.287Z,5.22
2022-12-03T06:50:15.060Z,4.47
2022-12-03T06:52:42.066Z,3.65
2022-12-03T06:55:09.734Z,5.85
2022-12-03T06:57:36.755Z,12.77
2022-12-03T07:00:06.361Z,8.70
2022-12-03T07:02:33.578Z,7.28
2022-12-03T07:05:00.706Z,6.72
2022-12-03T07:07:27.673Z,7.68
2022-12-03T07:09:54.658Z,4.38
2022-12-03T07:12:21.740Z,3.28
2022-12-03T07:14:48.769Z,6.72
2022-12-03T07:17:15.799Z,5.93
2022-12-03T07:19:42.860Z,4.43
2022-12-03T07:22:09.904Z,4.15
2022-12-03T07:24:36.851Z,3.95
2022-12-03T07:27:03.908Z,3.00
2022-12-03T07:29:30.943Z,4.25
2022-12-03T07:31:57.960Z,5.95
2022-12-03T07:34:24.937Z,2.95
2022-12-03T07:36:52.048Z,2.42
2022-12-03T07:39:19.019Z,1.98
2022-12-03T07:41:46.017Z,4.47
2022-12-03T07:44:14.755Z,5.60
2022-12-03T07:46:42.436Z,5.45
2022-12-03T07:49:09.634Z,5.07
2022-12-03T07:51:36.738Z,3.75
2022-12-03T07:54:04.104Z,4.78
2022-12-03T07:56:31.139Z,6.03
2022-12-03T07:58:58.114Z,3.67
2022-12-03T08:01:25.193Z,3.92
2022-12-03T08:03:52.263Z,4.75
2022-12-03T08:06:19.327Z,4.07
2022-12-03T08:08:46.300Z,3.80
2022-12-03T08:11:17.119Z,4.57
2022-12-03T08:13:44.165Z,6.05
2022-12-03T08:16:22.639Z,5.07
2022-12-03T08:18:50.815Z,6.28
2022-12-03T08:21:19.917Z,4.50
2022-12-03T08:23:47.043Z,5.93
2022-12-03T08:26:22.169Z,3.85
2022-12-03T08:28:49.331Z,4.90
2022-12-03T08:31:20.952Z,4.50
2022-12-03T08:33:50.559Z,3.00
2022-12-03T08:36:26.197Z,4.28
2022-12-03T08:38:56.701Z,5.43
2022-12-03T08:41:44.850Z,5.55
2022-12-03T08:44:28.459Z,6.45
2022-12-03T08:47:02.647Z,2.78
2022-12-03T08:49:30.091Z,3.50
2022-12-03T08:52:00.814Z,5.95
2022-12-03T08:54:28.137Z,7.25
2022-12-03T08:56:55.365Z,4.88
2022-12-03T08:59:29.700Z,7.72
2022-12-03T09:01:57.678Z,8.77
2022-12-03T09:04:32.072Z,8.23
2022-12-03T09:06:59.365Z,8.13
2022-12-03T09:09:26.664Z,5.05
2022-12-03T09:11:54.358Z,5.50
2022-12-03T09:14:23.019Z,5.82
2022-12-03T09:16:52.282Z,7.40
2022-12-03T09:19:19.428Z,4.70
2022-12-03T09:21:46.396Z,3.80
2022-12-03T09:24:13.403Z,6.38
2022-12-03T09:26:40.539Z,5.07
2022-12-03T09:29:11.824Z,6.72
2022-12-03T09:31:39.614Z,4.53
2022-12-03T09:34:07.262Z,6.53
2022-12-03T09:36:34.548Z,5.53
2022-12-03T09:39:01.689Z,5.75
2022-12-03T09:41:29.152Z,3.78
2022-12-03T09:44:05.615Z,5.30
2022-12-03T09:46:35.966Z,8.15
2022-12-03T09:49:06.630Z,5.60
2022-12-03T09:51:36.919Z,6.68
2022-12-03T09:54:06.350Z,4.93
2022-12-03T09:56:36.796Z,7.72
2022-12-03T09:59:07.703Z,15.98
2022-12-03T10:01:34.949Z,11.13
2022-12-03T10:04:02.378Z,12.02
2022-12-03T10:06:29.669Z,19.20
2022-12-03T10:08:57.004Z,29.63
2022-12-03T10:11:25.838Z,31.10
2022-12-03T10:13:55.526Z,41.50
2022-12-03T10:16:23.195Z,47.60
2022-12-03T10:18:56.300Z,40.63
2022-12-03T10:21:26.109Z,39.43
2022-12-03T10:24:17.773Z,28.33
2022-12-03T10:26:46.890Z,26.15
2022-12-03T10:29:17.164Z,27.40
2022-12-03T10:31:44.222Z,26.73
2022-12-03T10:34:12.191Z,20.65
2022-12-03T10:36:39.209Z,35.63
2022-12-03T10:39:13.910Z,40.92
2022-12-03T10:41:43.139Z,15.93
2022-12-03T10:44:15.989Z,17.92
2022-12-03T10:46:44.464Z,8.77
2022-12-03T10:49:19.776Z,21.10
2022-12-03T10:51:48.849Z,9.63
2022-12-03T10:54:22.654Z,12.40
2022-12-03T10:59:22.212Z,15.02
2022-12-03T11:01:50.668Z,14.20
2022-12-03T11:04:31.050Z,9.13
2022-12-03T11:06:58.854Z,22.02
2022-12-03T11:09:29.835Z,9.55
2022-12-03T11:11:56.985Z,11.52
2022-12-03T11:14:52.400Z,8.68
2022-12-03T11:17:51.268Z,15.52
2022-12-03T11:20:23.064Z,13.50
2022-12-03T11:22:59.701Z,14.63
2022-12-03T11:25:29.572Z,9.93
2022-12-03T11:28:45.947Z,10.77
2022-12-03T11:31:36.608Z,12.73
2022-12-03T11:34:18.602Z,9.50
2022-12-03T11:37:13.194Z,7.53
2022-12-03T11:39:53.288Z,8.70
2022-12-03T11:42:26.357Z,6.20
2022-12-03T11:45:11.292Z,11.67
2022-12-03T11:47:43.571Z,9.35
2022-12-03T11:50:39.446Z,5.90
2022-12-03T11:53:13.867Z,7.38
2022-12-03T11:55:52.484Z,7.18
2022-12-03T11:58:40.047Z,7.28
2022-12-03T12:01:08.689Z,8.98
2022-12-03T12:03:42.658Z,5.32
2022-12-03T12:06:14.255Z,4.13
2022-12-03T12:08:51.019Z,7.85
2022-12-03T12:11:32.823Z,4.60
2022-12-03T12:14:01.808Z,27.23
2022-12-03T12:16:55.335Z,26.67
2022-12-03T12:19:31.680Z,29.90
2022-12-03T12:22:28.823Z,37.70
2022-12-03T12:25:04.772Z,34.08
2022-12-03T12:27:45.343Z,32.30
2022-12-03T12:30:19.102Z,12.68
2022-12-03T12:32:47.539Z,12.70
2022-12-03T12:35:28.820Z,6.97
2022-12-03T12:38:02.833Z,10.32
2022-12-03T12:40:32.645Z,6.68
2022-12-03T12:43:31.067Z,10.25
2022-12-03T12:46:24.886Z,23.65
2022-12-03T12:48:56.504Z,20.60
2022-12-03T12:51:26.491Z,21.48
2022-12-03T12:53:54.085Z,20.10
2022-12-03T12:56:28.491Z,27.80
2022-12-03T12:58:59.453Z,14.93
2022-12-03T13:01:31.558Z,20.23
2022-12-03T13:03:59.780Z,16.33
2022-12-03T13:06:29.954Z,8.20
2022-12-03T13:08:57.727Z,11.77
2022-12-03T13:11:46.041Z,10.93
2022-12-03T13:14:16.411Z,21.70
2022-12-03T13:16:43.841Z,20.25
2022-12-03T13:19:30.659Z,18.65
2022-12-03T13:22:01.463Z,11.63
2022-12-03T13:24:32.890Z,8.20
2022-12-03T13:27:22.176Z,8.50
2022-12-03T13:30:14.102Z,8.05
2022-12-03T13:32:43.041Z,6.47
2022-12-03T13:35:30.834Z,6.22
2022-12-03T13:38:00.739Z,6.68
2022-12-03T13:40:35.187Z,5.38
2022-12-03T13:43:14.822Z,6.40
2022-12-03T13:45:44.112Z,6.80
2022-12-03T13:48:20.517Z,9.02
2022-12-03T13:50:47.703Z,13.40
2022-12-03T13:53:35.892Z,5.78
2022-12-03T13:56:28.243Z,9.65
2022-12-03T13:58:57.603Z,7.88
2022-12-03T14:01:24.710Z,15.75
2022-12-03T14:03:51.796Z,7.55
2022-12-03T14:06:19.021Z,12.48
2022-12-03T14:08:46.050Z,9.13
2022-12-03T14:11:31.589Z,9.45
2022-12-03T14:13:58.522Z,7.28
2022-12-03T14:16:25.525Z,11.32
2022-12-03T14:18:52.658Z,17.27
2022-12-03T14:21:19.726Z,15.38
2022-12-03T14:23:46.663Z,14.60
2022-12-03T14:26:13.699Z,6.38
2022-12-03T14:28:40.794Z,8.68
2022-12-03T14:31:07.804Z,10.00
2022-12-03T14:33:34.868Z,12.02
2022-12-03T14:36:01.943Z,9.25
2022-12-03T14:38:28.936Z,9.63
2022-12-03T14:40:56.041Z,8.38
2022-12-03T14:43:23.111Z,12.15
2022-12-03T14:45:50.168Z,9.32
2022-12-03T14:48:17.219Z,12.88
2022-12-03T14:50:44.195Z,12.23
2022-12-03T14:53:11.172Z,7.25
2022-12-03T14:55:38.188Z,7.30
2022-12-03T14:58:05.235Z,12.20
2022-12-03T15:00:32.220Z,8.95
2022-12-03T15:02:59.290Z,9.25
2022-12-03T15:05:28.826Z,10.20
2022-12-03T15:07:56.503Z,10.15
2022-12-03T15:10:23.786Z,8.05
2022-12-03T15:12:50.849Z,10.27
2022-12-03T15:15:17.838Z,8.10
2022-12-03T15:17:45.994Z,8.48
2022-12-03T15:20:13.486Z,9.85
2022-12-03T15:22:40.429Z,7.70
2022-12-03T15:25:08.040Z,9.85
2022-12-03T15:27:35.129Z,12.15
2022-12-03T15:30:02.571Z,11.63
2022-12-03T15:32:29.559Z,12.85
2022-12-03T15:34:56.579Z,25.70
2022-12-03T15:37:27.850Z,17.48
2022-12-03T15:39:55.187Z,20.13
2022-12-03T15:42:22.407Z,39.00
2022-12-03T15:44:49.503Z,31.52
2022-12-03T15:47:16.494Z,30.63
2022-12-03T15:49:43.663Z,20.92
2022-12-03T15:52:10.748Z,21.83
2022-12-03T15:54:37.810Z,11.68
2022-12-03T15:57:04.803Z,17.67
2022-12-03T15:59:31.899Z,37.88
2022-12-03T16:01:59.343Z,21.27
2022-12-03T16:04:26.475Z,25.33
2022-12-03T16:06:53.523Z,14.50
2022-12-03T16:09:26.692Z,23.17
2022-12-03T16:11:54.558Z,9.55
2022-12-03T16:14:21.586Z,20.63
2022-12-03T16:16:48.555Z,19.35
2022-12-03T16:19:15.476Z,24.45
2022-12-03T16:21:42.531Z,22.92
2022-12-03T16:24:09.562Z,18.35
2022-12-03T16:26:36.598Z,20.08
2022-12-03T16:29:03.774Z,18.20
2022-12-03T16:31:31.011Z,19.85
2022-12-03T16:33:58.150Z,10.82
2022-12-03T16:36:25.247Z,12.30
2022-12-03T16:38:52.304Z,10.45
2022-12-03T16:41:19.384Z,11.57
2022-12-03T16:43:48.685Z,53.50
2022-12-03T16:46:15.803Z,18.08
2022-12-03T16:48:43.481Z,10.75
2022-12-03T16:51:11.098Z,11.55
2022-12-03T16:53:38.198Z,13.05
2022-12-03T16:56:05.400Z,19.55
2022-12-03T16:58:32.416Z,16.27
2022-12-03T17:00:59.812Z,13.85
2022-12-03T17:03:33.456Z,18.23
2022-12-03T17:06:01.117Z,16.08
2022-12-03T17:08:28.125Z,19.75
2022-12-03T17:10:55.333Z,25.83
2022-12-03T17:13:25.824Z,11.82
2022-12-03T17:15:53.009Z,16.13
2022-12-03T17:18:20.145Z,20.50
2022-12-03T17:20:47.116Z,12.05
2022-12-03T17:23:14.230Z,17.08
2022-12-03T17:25:41.199Z,17.15
2022-12-03T17:28:08.142Z,10.82
2022-12-03T17:30:35.362Z,18.08
2022-12-03T17:33:02.355Z,21.35
2022-12-03T17:35:29.530Z,22.77
2022-12-03T17:37:56.776Z,19.83
2022-12-03T17:40:23.799Z,17.17
2022-12-03T17:42:50.783Z,21.52
2022-12-03T17:45:17.952Z,36.63
2022-12-03T17:47:44.924Z,22.17
2022-12-03T17:50:12.347Z,21.02
2022-12-03T17:52:39.405Z,20.35
2022-12-03T17:55:13.925Z,37.67
2022-12-03T17:57:43.240Z,24.25
2022-12-03T18:00:10.781Z,27.42
2022-12-03T18:02:37.797Z,36.83
2022-12-03T18:05:05.222Z,27.92
2022-12-03T18:07:32.459Z,22.73
2022-12-03T18:09:59.622Z,16.13
2022-12-03T18:12:26.639Z,23.70
2022-12-03T18:14:53.655Z,27.73
2022-12-03T18:17:20.757Z,17.77
2022-12-03T18:19:47.904Z,15.75
2022-12-03T18:22:15.236Z,24.38
2022-12-03T18:24:44.945Z,29.75
2022-12-03T18:27:13.118Z,24.40
2022-12-03T18:29:40.177Z,23.75
2022-12-03T18:32:27.082Z,26.33
2022-12-03T18:34:56.166Z,20.58
2022-12-03T18:37:29.063Z,25.95
2022-12-03T18:39:57.777Z,30.05
2022-12-03T18:42:25.389Z,23.85
2022-12-03T18:44:54.790Z,16.30
2022-12-03T18:47:28.306Z,15.30
2022-12-03T18:49:55.971Z,14.52
2022-12-03T18:52:25.295Z,10.77
2022-12-03T18:54:53.149Z,14.48
2022-12-03T18:57:20.227Z,13.68
2022-12-03T18:59:47.385Z,15.20
2022-12-03T19:02:45.929Z,12.77
2022-12-03T19:05:04.991Z,11.00
2022-12-03T19:07:34.925Z,12.95
2022-12-03T19:10:02.327Z,8.82
2022-12-03T19:12:29.657Z,8.98
2022-12-03T19:14:56.634Z,9.15
2022-12-03T19:17:23.686Z,13.77
2022-12-03T19:19:50.739Z,9.10
2022-12-03T19:22:17.724Z,9.55
2022-12-03T19:24:44.692Z,8.43
2022-12-03T19:27:11.785Z,8.80
2022-12-03T19:29:38.923Z,9.68
2022-12-03T19:32:06.226Z,11.98
2022-12-03T19:34:33.603Z,13.05
2022-12-03T19:37:00.735Z,7.22
2022-12-03T19:39:27.687Z,11.52
2022-12-03T19:41:54.668Z,9.32
2022-12-03T19:44:21.864Z,11.85
2022-12-03T19:46:51.630Z,8.93
2022-12-03T19:49:21.151Z,9.10
2022-12-03T19:51:48.731Z,8.52
2022-12-03T19:54:17.461Z,7.57
2022-12-03T19:56:44.757Z,8.82
2022-12-03T19:59:13.257Z,9.75
2022-12-03T20:01:43.287Z,11.55
2022-12-03T20:04:11.952Z,10.18
2022-12-03T20:06:39.413Z,13.55
2022-12-03T20:09:11.760Z,14.90
2022-12-03T20:11:40.367Z,10.48
2022-12-03T20:14:10.820Z,8.73
2022-12-03T20:16:37.964Z,11.00
2022-12-03T20:19:07.724Z,12.90
2022-12-03T20:21:36.961Z,24.45
2022-12-03T20:24:05.429Z,27.42
2022-12-03T20:26:32.972Z,42.97
2022-12-03T20:29:00.490Z,40.75
2022-12-03T20:31:30.111Z,18.45
2022-12-03T20:33:59.856Z,19.75
2022-12-03T20:36:27.890Z,16.80
2022-12-03T20:38:56.683Z,13.90
2022-12-03T20:41:23.916Z,9.68
2022-12-03T20:43:51.666Z,12.68
2022-12-03T20:46:26.595Z,13.30
2022-12-03T20:48:56.986Z,17.52
2022-12-03T20:51:29.963Z,18.73
2022-12-03T20:53:58.617Z,18.27
2022-12-03T20:56:37.560Z,17.58
2022-12-03T20:59:06.954Z,16.50
2022-12-03T21:01:36.434Z,12.25
2022-12-03T21:04:04.978Z,15.52
2022-12-03T21:06:34.421Z,14.48
2022-12-03T21:09:01.780Z,13.85
2022-12-03T21:11:32.362Z,10.82
2022-12-03T21:14:00.688Z,14.77
2022-12-03T21:17:05.758Z,13.60
2022-12-03T21:19:21.114Z,13.02
2022-12-03T21:21:48.629Z,14.10
2022-12-03T21:24:15.710Z,15.57
2022-12-03T21:26:42.864Z,11.00
2022-12-03T21:29:09.925Z,12.88
2022-12-03T21:31:38.603Z,11.90
2022-12-03T21:34:06.246Z,8.68
2022-12-03T21:36:33.300Z,8.63
2022-12-03T21:39:00.936Z,10.00
2022-12-03T21:41:27.912Z,9.15
2022-12-03T21:43:54.989Z,8.63
2022-12-03T21:47:12.688Z,8.05
2022-12-03T21:49:09.220Z,10.07
2022-12-03T21:51:36.788Z,7.15
2022-12-03T21:54:04.070Z,8.80
2022-12-03T21:56:33.270Z,5.65
2022-12-03T21:59:00.263Z,5.65
2022-12-03T22:01:27.803Z,9.73
2022-12-03T22:03:54.995Z,9.13
2022-12-03T22:06:22.579Z,5.13
2022-12-03T22:08:50.090Z,6.65
2022-12-03T22:11:20.027Z,7.20
2022-12-03T22:13:47.599Z,8.38
2022-12-03T22:16:18.196Z,5.47
2022-12-03T22:18:45.644Z,8.57
2022-12-03T22:21:15.323Z,6.88
2022-12-03T22:23:42.668Z,5.82
2022-12-03T22:26:13.350Z,6.25
2022-12-03T22:28:44.622Z,4.43
2022-12-03T22:31:12.511Z,5.70
2022-12-03T22:33:39.873Z,8.85
2022-12-03T22:36:18.005Z,8.15
2022-12-03T22:38:46.806Z,3.97
2022-12-03T22:41:14.810Z,6.68
2022-12-03T22:43:42.217Z,6.82
2022-12-03T22:46:12.824Z,6.43
2022-12-03T22:48:42.262Z,7.00
2022-12-03T22:51:15.042Z,6.13
2022-12-03T22:53:42.192Z,7.50
2022-12-03T22:56:09.537Z,4.05
2022-12-03T22:58:37.894Z,6.53
2022-12-03T23:01:05.000Z,7.47
2022-12-03T23:03:32.073Z,5.63
2022-12-03T23:05:59.257Z,5.80
2022-12-03T23:08:26.292Z,4.35
2022-12-03T23:10:53.748Z,5.97
2022-12-03T23:13:21.310Z,5.55
2022-12-03T23:15:50.984Z,6.93
2022-12-03T23:18:19.724Z,5.38
2022-12-03T23:20:52.263Z,6.47
2022-12-03T23:23:20.364Z,6.70
2022-12-03T23:26:04.971Z,6.88
2022-12-03T23:28:33.327Z,8.02
2022-12-03T23:31:00.939Z,5.22
2022-12-03T23:33:28.732Z,6.47
2022-12-03T23:35:55.717Z,6.45
2022-12-03T23:38:22.806Z,7.65
2022-12-03T23:40:50.204Z,4.00
2022-12-03T23:43:17.178Z,6.28
2022-12-03T23:45:44.111Z,4.13
2022-12-03T23:48:11.357Z,5.45
2022-12-03T23:50:41.570Z,4.40
2022-12-03T23:53:08.902Z,5.45
2022-12-03T23:55:40.342Z,6.63
2022-12-03T23:58:07.599Z,5.53
